sensor_id;sensor_type;location;lat;lon;timestamp;temperature;humidity
51815;DHT22;37874;53.158;6.766;2024-02-21T00:01:32;15.40;72.40
51815;DHT22;37874;53.158;6.766;2024-02-21T00:04:05;15.20;72.40
51815;DHT22;37874;53.158;6.766;2024-02-21T00:06:33;15.10;72.20
51815;DHT22;37874;53.158;6.766;2024-02-21T00:08:59;15.20;72.20
51815;DHT22;37874;53.158;6.766;2024-02-21T00:11:28;16.20;72.60
51815;DHT22;37874;53.158;6.766;2024-02-21T00:13:54;15.20;72.10
51815;DHT22;37874;53.158;6.766;2024-02-21T00:16:27;15.70;72.50
51815;DHT22;37874;53.158;6.766;2024-02-21T00:18:53;15.70;72.50
51815;DHT22;37874;53.158;6.766;2024-02-21T00:21:33;15.10;72.30
51815;DHT22;37874;53.158;6.766;2024-02-21T00:23:59;15.10;72.40
51815;DHT22;37874;53.158;6.766;2024-02-21T00:26:24;15.10;72.40
51815;DHT22;37874;53.158;6.766;2024-02-21T00:28:51;15.10;72.40
51815;DHT22;37874;53.158;6.766;2024-02-21T00:31:19;15.10;72.40
51815;DHT22;37874;53.158;6.766;2024-02-21T00:33:44;15.10;72.30
51815;DHT22;37874;53.158;6.766;2024-02-21T00:36:10;15.60;72.60
51815;DHT22;37874;53.158;6.766;2024-02-21T00:38:38;15.40;72.50
51815;DHT22;37874;53.158;6.766;2024-02-21T00:41:04;16.20;73.10
51815;DHT22;37874;53.158;6.766;2024-02-21T00:43:32;16.30;73.20
51815;DHT22;37874;53.158;6.766;2024-02-21T00:45:59;15.30;72.70
51815;DHT22;37874;53.158;6.766;2024-02-21T00:48:27;15.10;72.50
51815;DHT22;37874;53.158;6.766;2024-02-21T00:50:54;15.00;72.50
51815;DHT22;37874;53.158;6.766;2024-02-21T00:53:22;15.10;72.60
51815;DHT22;37874;53.158;6.766;2024-02-21T00:55:54;15.10;72.50
51815;DHT22;37874;53.158;6.766;2024-02-21T00:58:22;15.30;72.70
51815;DHT22;37874;53.158;6.766;2024-02-21T01:00:50;15.10;72.50
51815;DHT22;37874;53.158;6.766;2024-02-21T01:03:18;16.20;73.20
51815;DHT22;37874;53.158;6.766;2024-02-21T01:05:44;15.10;72.60
51815;DHT22;37874;53.158;6.766;2024-02-21T01:08:10;15.10;72.60
51815;DHT22;37874;53.158;6.766;2024-02-21T01:10:37;15.10;72.70
51815;DHT22;37874;53.158;6.766;2024-02-21T01:13:07;15.10;73.10
51815;DHT22;37874;53.158;6.766;2024-02-21T01:15:34;15.50;72.80
51815;DHT22;37874;53.158;6.766;2024-02-21T01:18:03;15.10;72.60
51815;DHT22;37874;53.158;6.766;2024-02-21T01:20:28;15.10;72.60
51815;DHT22;37874;53.158;6.766;2024-02-21T01:23:03;15.10;72.70
51815;DHT22;37874;53.158;6.766;2024-02-21T01:25:36;15.40;72.80
51815;DHT22;37874;53.158;6.766;2024-02-21T01:28:01;15.10;72.80
51815;DHT22;37874;53.158;6.766;2024-02-21T01:30:28;15.10;72.60
51815;DHT22;37874;53.158;6.766;2024-02-21T01:32:55;16.10;73.90
51815;DHT22;37874;53.158;6.766;2024-02-21T01:35:34;15.10;72.70
51815;DHT22;37874;53.158;6.766;2024-02-21T01:38:00;15.10;72.80
51815;DHT22;37874;53.158;6.766;2024-02-21T01:40:31;16.20;73.30
51815;DHT22;37874;53.158;6.766;2024-02-21T01:43:00;15.50;73.00
51815;DHT22;37874;53.158;6.766;2024-02-21T01:45:26;16.20;73.30
51815;DHT22;37874;53.158;6.766;2024-02-21T01:47:57;15.00;72.80
51815;DHT22;37874;53.158;6.766;2024-02-21T01:50:23;15.50;73.00
51815;DHT22;37874;53.158;6.766;2024-02-21T01:52:59;15.20;72.90
51815;DHT22;37874;53.158;6.766;2024-02-21T01:55:25;15.00;72.80
51815;DHT22;37874;53.158;6.766;2024-02-21T01:57:51;15.10;72.90
51815;DHT22;37874;53.158;6.766;2024-02-21T02:00:17;15.90;73.40
51815;DHT22;37874;53.158;6.766;2024-02-21T02:02:45;15.00;72.90
51815;DHT22;37874;53.158;6.766;2024-02-21T02:05:11;15.00;72.90
51815;DHT22;37874;53.158;6.766;2024-02-21T02:07:40;15.80;73.30
51815;DHT22;37874;53.158;6.766;2024-02-21T02:10:07;15.00;72.90
51815;DHT22;37874;53.158;6.766;2024-02-21T02:12:35;15.00;73.00
51815;DHT22;37874;53.158;6.766;2024-02-21T02:15:13;15.20;73.10
51815;DHT22;37874;53.158;6.766;2024-02-21T02:17:41;15.00;73.00
51815;DHT22;37874;53.158;6.766;2024-02-21T02:20:07;15.50;73.30
51815;DHT22;37874;53.158;6.766;2024-02-21T02:22:43;15.00;73.00
51815;DHT22;37874;53.158;6.766;2024-02-21T02:25:16;15.00;73.20
51815;DHT22;37874;53.158;6.766;2024-02-21T02:27:45;15.50;73.40
51815;DHT22;37874;53.158;6.766;2024-02-21T02:30:12;15.00;73.10
51815;DHT22;37874;53.158;6.766;2024-02-21T02:32:44;15.00;73.20
51815;DHT22;37874;53.158;6.766;2024-02-21T02:35:17;15.00;73.20
51815;DHT22;37874;53.158;6.766;2024-02-21T02:37:50;15.00;73.30
51815;DHT22;37874;53.158;6.766;2024-02-21T02:40:21;14.90;73.20
51815;DHT22;37874;53.158;6.766;2024-02-21T02:42:48;15.00;73.30
51815;DHT22;37874;53.158;6.766;2024-02-21T02:45:15;15.40;73.50
51815;DHT22;37874;53.158;6.766;2024-02-21T02:47:51;14.90;73.30
51815;DHT22;37874;53.158;6.766;2024-02-21T02:50:18;15.00;73.30
51815;DHT22;37874;53.158;6.766;2024-02-21T02:52:50;15.00;73.30
51815;DHT22;37874;53.158;6.766;2024-02-21T02:55:16;14.90;73.30
51815;DHT22;37874;53.158;6.766;2024-02-21T02:57:43;15.00;73.30
51815;DHT22;37874;53.158;6.766;2024-02-21T03:00:12;14.90;73.30
51815;DHT22;37874;53.158;6.766;2024-02-21T03:02:39;14.90;73.30
51815;DHT22;37874;53.158;6.766;2024-02-21T03:05:18;16.00;73.90
51815;DHT22;37874;53.158;6.766;2024-02-21T03:07:51;14.90;73.30
51815;DHT22;37874;53.158;6.766;2024-02-21T03:10:17;15.80;73.80
51815;DHT22;37874;53.158;6.766;2024-02-21T03:12:45;15.10;73.40
51815;DHT22;37874;53.158;6.766;2024-02-21T03:15:12;15.80;73.90
51815;DHT22;37874;53.158;6.766;2024-02-21T03:17:39;14.90;73.30
51815;DHT22;37874;53.158;6.766;2024-02-21T03:20:06;15.70;73.80
51815;DHT22;37874;53.158;6.766;2024-02-21T03:22:36;14.90;73.30
51815;DHT22;37874;53.158;6.766;2024-02-21T03:25:03;14.90;73.40
51815;DHT22;37874;53.158;6.766;2024-02-21T03:27:42;14.90;73.40
51815;DHT22;37874;53.158;6.766;2024-02-21T03:30:08;15.10;73.50
51815;DHT22;37874;53.158;6.766;2024-02-21T03:32:36;14.90;73.40
51815;DHT22;37874;53.158;6.766;2024-02-21T03:35:08;15.70;73.80
51815;DHT22;37874;53.158;6.766;2024-02-21T03:37:40;14.90;73.40
51815;DHT22;37874;53.158;6.766;2024-02-21T03:40:09;16.30;74.10
51815;DHT22;37874;53.158;6.766;2024-02-21T03:42:39;14.90;73.40
51815;DHT22;37874;53.158;6.766;2024-02-21T03:45:05;15.20;73.60
51815;DHT22;37874;53.158;6.766;2024-02-21T03:47:31;14.90;73.40
51815;DHT22;37874;53.158;6.766;2024-02-21T03:50:02;14.90;73.50
51815;DHT22;37874;53.158;6.766;2024-02-21T03:52:28;14.90;73.50
51815;DHT22;37874;53.158;6.766;2024-02-21T03:54:53;14.90;73.40
51815;DHT22;37874;53.158;6.766;2024-02-21T03:57:21;16.20;74.20
51815;DHT22;37874;53.158;6.766;2024-02-21T03:59:50;14.90;73.40
51815;DHT22;37874;53.158;6.766;2024-02-21T04:02:16;15.00;73.50
51815;DHT22;37874;53.158;6.766;2024-02-21T04:04:45;14.90;73.50
51815;DHT22;37874;53.158;6.766;2024-02-21T04:07:14;14.90;73.50
51815;DHT22;37874;53.158;6.766;2024-02-21T04:09:41;15.70;73.90
51815;DHT22;37874;53.158;6.766;2024-02-21T04:12:08;15.10;73.60
51815;DHT22;37874;53.158;6.766;2024-02-21T04:14:39;15.60;73.90
51815;DHT22;37874;53.158;6.766;2024-02-21T04:17:06;14.90;73.50
51815;DHT22;37874;53.158;6.766;2024-02-21T04:19:33;14.90;73.50
51815;DHT22;37874;53.158;6.766;2024-02-21T04:22:07;14.90;73.50
51815;DHT22;37874;53.158;6.766;2024-02-21T04:24:35;15.80;74.00
51815;DHT22;37874;53.158;6.766;2024-02-21T04:27:03;14.90;73.50
51815;DHT22;37874;53.158;6.766;2024-02-21T04:29:29;14.90;73.50
51815;DHT22;37874;53.158;6.766;2024-02-21T04:31:57;14.90;73.60
51815;DHT22;37874;53.158;6.766;2024-02-21T04:34:23;15.60;74.00
51815;DHT22;37874;53.158;6.766;2024-02-21T04:36:50;16.10;74.20
51815;DHT22;37874;53.158;6.766;2024-02-21T04:39:25;15.10;73.70
51815;DHT22;37874;53.158;6.766;2024-02-21T04:41:55;15.50;73.90
51815;DHT22;37874;53.158;6.766;2024-02-21T04:44:22;14.80;73.60
51815;DHT22;37874;53.158;6.766;2024-02-21T04:46:48;15.00;74.30
51815;DHT22;37874;53.158;6.766;2024-02-21T04:49:16;16.10;74.30
51815;DHT22;37874;53.158;6.766;2024-02-21T04:51:44;14.90;73.70
51815;DHT22;37874;53.158;6.766;2024-02-21T04:54:11;14.90;73.70
51815;DHT22;37874;53.158;6.766;2024-02-21T04:56:43;15.10;73.80
51815;DHT22;37874;53.158;6.766;2024-02-21T04:59:09;15.00;73.80
51815;DHT22;37874;53.158;6.766;2024-02-21T05:01:37;14.90;73.80
51815;DHT22;37874;53.158;6.766;2024-02-21T05:04:14;15.00;73.80
51815;DHT22;37874;53.158;6.766;2024-02-21T05:06:48;14.90;73.70
51815;DHT22;37874;53.158;6.766;2024-02-21T05:09:20;14.90;74.50
51815;DHT22;37874;53.158;6.766;2024-02-21T05:11:51;14.90;73.80
51815;DHT22;37874;53.158;6.766;2024-02-21T05:14:20;14.90;73.70
51815;DHT22;37874;53.158;6.766;2024-02-21T05:16:46;15.70;74.20
51815;DHT22;37874;53.158;6.766;2024-02-21T05:19:13;14.90;73.80
51815;DHT22;37874;53.158;6.766;2024-02-21T05:21:39;14.90;73.70
51815;DHT22;37874;53.158;6.766;2024-02-21T05:24:05;15.60;74.10
51815;DHT22;37874;53.158;6.766;2024-02-21T05:26:33;14.90;73.70
51815;DHT22;37874;53.158;6.766;2024-02-21T05:29:03;14.90;73.70
51815;DHT22;37874;53.158;6.766;2024-02-21T05:32:02;14.90;73.70
51815;DHT22;37874;53.158;6.766;2024-02-21T05:34:29;14.90;73.70
51815;DHT22;37874;53.158;6.766;2024-02-21T05:36:55;15.10;73.80
51815;DHT22;37874;53.158;6.766;2024-02-21T05:39:26;14.90;73.70
51815;DHT22;37874;53.158;6.766;2024-02-21T05:41:51;15.20;73.80
51815;DHT22;37874;53.158;6.766;2024-02-21T05:44:18;14.90;73.70
51815;DHT22;37874;53.158;6.766;2024-02-21T05:46:48;15.90;74.30
51815;DHT22;37874;53.158;6.766;2024-02-21T05:49:15;15.70;74.10
51815;DHT22;37874;53.158;6.766;2024-02-21T05:51:50;15.40;74.00
51815;DHT22;37874;53.158;6.766;2024-02-21T05:54:19;14.90;73.70
51815;DHT22;37874;53.158;6.766;2024-02-21T05:56:47;14.90;73.60
51815;DHT22;37874;53.158;6.766;2024-02-21T05:59:17;15.90;74.30
51815;DHT22;37874;53.158;6.766;2024-02-21T06:01:45;14.80;73.70
51815;DHT22;37874;53.158;6.766;2024-02-21T06:04:12;14.80;73.70
51815;DHT22;37874;53.158;6.766;2024-02-21T06:06:49;14.80;73.70
51815;DHT22;37874;53.158;6.766;2024-02-21T06:09:18;15.70;74.20
51815;DHT22;37874;53.158;6.766;2024-02-21T06:11:45;14.80;73.70
51815;DHT22;37874;53.158;6.766;2024-02-21T06:14:19;14.90;73.80
51815;DHT22;37874;53.158;6.766;2024-02-21T06:16:47;15.00;73.80
51815;DHT22;37874;53.158;6.766;2024-02-21T06:19:16;15.00;73.70
51815;DHT22;37874;53.158;6.766;2024-02-21T06:21:44;14.90;73.60
51815;DHT22;37874;53.158;6.766;2024-02-21T06:24:11;15.20;73.90
51815;DHT22;37874;53.158;6.766;2024-02-21T06:26:40;14.90;73.70
51815;DHT22;37874;53.158;6.766;2024-02-21T06:29:09;15.10;73.70
51815;DHT22;37874;53.158;6.766;2024-02-21T06:31:35;14.90;73.80
51815;DHT22;37874;53.158;6.766;2024-02-21T06:34:07;16.00;74.30
51815;DHT22;37874;53.158;6.766;2024-02-21T06:36:33;15.00;73.70
51815;DHT22;37874;53.158;6.766;2024-02-21T06:38:59;14.90;73.70
51815;DHT22;37874;53.158;6.766;2024-02-21T06:41:27;15.20;73.90
51815;DHT22;37874;53.158;6.766;2024-02-21T06:43:57;15.70;74.10
51815;DHT22;37874;53.158;6.766;2024-02-21T06:46:27;14.90;73.70
51815;DHT22;37874;53.158;6.766;2024-02-21T06:49:03;16.10;74.30
51815;DHT22;37874;53.158;6.766;2024-02-21T06:51:34;15.30;73.90
51815;DHT22;37874;53.158;6.766;2024-02-21T06:54:04;14.90;73.90
51815;DHT22;37874;53.158;6.766;2024-02-21T06:56:33;14.80;73.60
51815;DHT22;37874;53.158;6.766;2024-02-21T06:59:30;14.90;73.60
51815;DHT22;37874;53.158;6.766;2024-02-21T07:02:00;14.90;73.70
51815;DHT22;37874;53.158;6.766;2024-02-21T07:04:29;14.90;73.70
51815;DHT22;37874;53.158;6.766;2024-02-21T07:06:58;15.00;73.70
51815;DHT22;37874;53.158;6.766;2024-02-21T07:09:26;15.30;73.90
51815;DHT22;37874;53.158;6.766;2024-02-21T07:11:53;14.90;73.70
51815;DHT22;37874;53.158;6.766;2024-02-21T07:14:19;14.80;73.70
51815;DHT22;37874;53.158;6.766;2024-02-21T07:16:45;15.40;74.00
51815;DHT22;37874;53.158;6.766;2024-02-21T07:19:11;14.90;73.70
51815;DHT22;37874;53.158;6.766;2024-02-21T07:21:37;15.30;73.90
51815;DHT22;37874;53.158;6.766;2024-02-21T07:24:04;15.40;74.00
51815;DHT22;37874;53.158;6.766;2024-02-21T07:26:32;14.80;73.60
51815;DHT22;37874;53.158;6.766;2024-02-21T07:29:02;14.80;73.60
51815;DHT22;37874;53.158;6.766;2024-02-21T07:31:29;14.90;73.70
51815;DHT22;37874;53.158;6.766;2024-02-21T07:33:56;14.90;73.70
51815;DHT22;37874;53.158;6.766;2024-02-21T07:36:30;14.80;73.70
51815;DHT22;37874;53.158;6.766;2024-02-21T07:39:00;15.40;73.90
51815;DHT22;37874;53.158;6.766;2024-02-21T07:41:28;14.90;73.70
51815;DHT22;37874;53.158;6.766;2024-02-21T07:44:05;14.90;73.70
51815;DHT22;37874;53.158;6.766;2024-02-21T07:46:31;15.00;73.70
51815;DHT22;37874;53.158;6.766;2024-02-21T07:49:04;15.00;73.70
51815;DHT22;37874;53.158;6.766;2024-02-21T07:51:30;15.80;74.10
51815;DHT22;37874;53.158;6.766;2024-02-21T07:53:56;15.60;74.00
51815;DHT22;37874;53.158;6.766;2024-02-21T07:56:27;14.90;73.60
51815;DHT22;37874;53.158;6.766;2024-02-21T08:02:20;14.90;73.60
51815;DHT22;37874;53.158;6.766;2024-02-21T08:04:51;14.90;73.60
51815;DHT22;37874;53.158;6.766;2024-02-21T08:07:22;14.90;73.50
51815;DHT22;37874;53.158;6.766;2024-02-21T08:09:53;14.90;73.60
51815;DHT22;37874;53.158;6.766;2024-02-21T08:12:28;14.80;73.50
51815;DHT22;37874;53.158;6.766;2024-02-21T08:14:59;14.90;73.50
51815;DHT22;37874;53.158;6.766;2024-02-21T08:17:26;15.20;73.60
51815;DHT22;37874;53.158;6.766;2024-02-21T08:19:52;15.70;73.90
51815;DHT22;37874;53.158;6.766;2024-02-21T08:22:18;14.90;73.40
51815;DHT22;37874;53.158;6.766;2024-02-21T08:24:55;15.30;73.60
51815;DHT22;37874;53.158;6.766;2024-02-21T08:27:59;14.90;73.40
51815;DHT22;37874;53.158;6.766;2024-02-21T08:30:34;14.90;73.40
51815;DHT22;37874;53.158;6.766;2024-02-21T08:33:05;14.90;73.40
51815;DHT22;37874;53.158;6.766;2024-02-21T08:35:38;15.30;73.60
51815;DHT22;37874;53.158;6.766;2024-02-21T08:38:08;15.10;73.50
51815;DHT22;37874;53.158;6.766;2024-02-21T08:40:34;14.90;73.40
51815;DHT22;37874;53.158;6.766;2024-02-21T08:46:12;14.90;73.40
51815;DHT22;37874;53.158;6.766;2024-02-21T08:48:44;14.80;73.30
51815;DHT22;37874;53.158;6.766;2024-02-21T08:51:15;14.90;73.90
51815;DHT22;37874;53.158;6.766;2024-02-21T08:53:47;14.90;73.40
51815;DHT22;37874;53.158;6.766;2024-02-21T08:56:19;15.00;73.50
51815;DHT22;37874;53.158;6.766;2024-02-21T08:58:45;14.90;73.30
51815;DHT22;37874;53.158;6.766;2024-02-21T09:01:11;14.90;73.20
51815;DHT22;37874;53.158;6.766;2024-02-21T09:03:40;14.90;73.30
51815;DHT22;37874;53.158;6.766;2024-02-21T09:06:09;14.90;73.30
51815;DHT22;37874;53.158;6.766;2024-02-21T09:08:35;15.10;73.40
51815;DHT22;37874;53.158;6.766;2024-02-21T09:11:06;15.00;73.30
51815;DHT22;37874;53.158;6.766;2024-02-21T09:13:37;15.40;73.40
51815;DHT22;37874;53.158;6.766;2024-02-21T09:16:04;15.50;73.60
51815;DHT22;37874;53.158;6.766;2024-02-21T09:18:33;15.00;73.30
51815;DHT22;37874;53.158;6.766;2024-02-21T09:21:00;15.00;73.20
51815;DHT22;37874;53.158;6.766;2024-02-21T09:23:25;15.50;73.40
51815;DHT22;37874;53.158;6.766;2024-02-21T09:25:52;15.00;73.20
51815;DHT22;37874;53.158;6.766;2024-02-21T09:28:20;15.00;73.20
51815;DHT22;37874;53.158;6.766;2024-02-21T09:30:47;15.00;73.10
51815;DHT22;37874;53.158;6.766;2024-02-21T09:33:13;15.80;73.50
51815;DHT22;37874;53.158;6.766;2024-02-21T09:35:47;15.90;73.60
51815;DHT22;37874;53.158;6.766;2024-02-21T09:38:15;15.00;73.10
51815;DHT22;37874;53.158;6.766;2024-02-21T09:40:46;16.20;73.70
51815;DHT22;37874;53.158;6.766;2024-02-21T09:43:17;15.00;73.10
51815;DHT22;37874;53.158;6.766;2024-02-21T09:45:46;15.50;73.30
51815;DHT22;37874;53.158;6.766;2024-02-21T09:50:59;15.00;73.10
51815;DHT22;37874;53.158;6.766;2024-02-21T09:53:27;15.00;73.00
51815;DHT22;37874;53.158;6.766;2024-02-21T09:55:59;15.00;73.10
51815;DHT22;37874;53.158;6.766;2024-02-21T09:58:34;14.90;73.10
51815;DHT22;37874;53.158;6.766;2024-02-21T10:01:01;15.00;73.10
51815;DHT22;37874;53.158;6.766;2024-02-21T10:03:27;15.00;73.20
51815;DHT22;37874;53.158;6.766;2024-02-21T10:05:53;15.00;73.20
51815;DHT22;37874;53.158;6.766;2024-02-21T10:08:25;15.00;73.10
51815;DHT22;37874;53.158;6.766;2024-02-21T10:10:52;15.50;73.30
51815;DHT22;37874;53.158;6.766;2024-02-21T10:13:30;15.00;73.00
51815;DHT22;37874;53.158;6.766;2024-02-21T10:16:15;15.00;72.90
51815;DHT22;37874;53.158;6.766;2024-02-21T10:18:45;15.00;72.90
51815;DHT22;37874;53.158;6.766;2024-02-21T10:21:13;15.00;72.90
51815;DHT22;37874;53.158;6.766;2024-02-21T10:23:53;15.70;73.80
51815;DHT22;37874;53.158;6.766;2024-02-21T10:26:21;15.00;72.90
51815;DHT22;37874;53.158;6.766;2024-02-21T10:29:06;15.00;72.80
51815;DHT22;37874;53.158;6.766;2024-02-21T10:31:32;15.00;72.80
51815;DHT22;37874;53.158;6.766;2024-02-21T10:34:10;15.30;73.00
51815;DHT22;37874;53.158;6.766;2024-02-21T10:37:08;15.30;73.00
51815;DHT22;37874;53.158;6.766;2024-02-21T10:39:37;15.90;73.30
51815;DHT22;37874;53.158;6.766;2024-02-21T10:42:04;15.20;72.90
51815;DHT22;37874;53.158;6.766;2024-02-21T10:44:32;15.10;72.80
51815;DHT22;37874;53.158;6.766;2024-02-21T10:46:59;15.20;72.90
51815;DHT22;37874;53.158;6.766;2024-02-21T10:49:30;15.10;72.70
51815;DHT22;37874;53.158;6.766;2024-02-21T10:52:32;15.40;72.90
51815;DHT22;37874;53.158;6.766;2024-02-21T10:55:07;15.20;72.70
51815;DHT22;37874;53.158;6.766;2024-02-21T10:57:37;15.20;72.50
51815;DHT22;37874;53.158;6.766;2024-02-21T11:00:05;16.10;73.00
51815;DHT22;37874;53.158;6.766;2024-02-21T11:02:35;15.20;72.50
51815;DHT22;37874;53.158;6.766;2024-02-21T11:05:04;15.20;72.40
51815;DHT22;37874;53.158;6.766;2024-02-21T11:07:33;15.20;72.40
51815;DHT22;37874;53.158;6.766;2024-02-21T11:10:19;15.40;72.50
51815;DHT22;37874;53.158;6.766;2024-02-21T11:12:45;15.20;72.20
51815;DHT22;37874;53.158;6.766;2024-02-21T11:15:11;15.30;72.30
51815;DHT22;37874;53.158;6.766;2024-02-21T11:18:02;15.30;72.30
51815;DHT22;37874;53.158;6.766;2024-02-21T11:20:36;15.30;72.20
51815;DHT22;37874;53.158;6.766;2024-02-21T11:23:11;15.40;72.00
51815;DHT22;37874;53.158;6.766;2024-02-21T11:25:41;15.40;71.90
51815;DHT22;37874;53.158;6.766;2024-02-21T11:28:12;15.90;72.20
51815;DHT22;37874;53.158;6.766;2024-02-21T11:30:39;15.40;71.90
51815;DHT22;37874;53.158;6.766;2024-02-21T11:33:08;15.40;71.90
51815;DHT22;37874;53.158;6.766;2024-02-21T11:35:35;15.40;71.80
51815;DHT22;37874;53.158;6.766;2024-02-21T11:38:13;15.40;71.80
51815;DHT22;37874;53.158;6.766;2024-02-21T11:40:46;15.60;71.90
51815;DHT22;37874;53.158;6.766;2024-02-21T11:43:15;15.40;71.70
51815;DHT22;37874;53.158;6.766;2024-02-21T11:45:49;15.60;71.90
51815;DHT22;37874;53.158;6.766;2024-02-21T11:48:16;15.40;71.70
51815;DHT22;37874;53.158;6.766;2024-02-21T11:50:58;15.40;71.60
51815;DHT22;37874;53.158;6.766;2024-02-21T11:53:26;15.30;71.70
51815;DHT22;37874;53.158;6.766;2024-02-21T11:55:56;15.40;71.80
51815;DHT22;37874;53.158;6.766;2024-02-21T11:58:26;15.70;71.90
51815;DHT22;37874;53.158;6.766;2024-02-21T12:00:52;16.10;72.10
51815;DHT22;37874;53.158;6.766;2024-02-21T12:03:24;15.40;71.60
51815;DHT22;37874;53.158;6.766;2024-02-21T12:05:50;16.20;72.30
51815;DHT22;37874;53.158;6.766;2024-02-21T12:08:18;15.40;71.80
51815;DHT22;37874;53.158;6.766;2024-02-21T12:10:44;16.20;72.30
51815;DHT22;37874;53.158;6.766;2024-02-21T12:13:22;15.70;72.10
51815;DHT22;37874;53.158;6.766;2024-02-21T12:15:53;15.40;72.00
51815;DHT22;37874;53.158;6.766;2024-02-21T12:18:23;16.30;72.40
51815;DHT22;37874;53.158;6.766;2024-02-21T12:20:50;16.00;72.30
51815;DHT22;37874;53.158;6.766;2024-02-21T12:23:20;15.30;71.90
51815;DHT22;37874;53.158;6.766;2024-02-21T12:25:46;15.80;72.20
51815;DHT22;37874;53.158;6.766;2024-02-21T12:28:18;15.30;72.00
51815;DHT22;37874;53.158;6.766;2024-02-21T12:30:47;15.30;72.10
51815;DHT22;37874;53.158;6.766;2024-02-21T12:33:18;15.30;72.10
51815;DHT22;37874;53.158;6.766;2024-02-21T12:35:46;15.30;72.20
51815;DHT22;37874;53.158;6.766;2024-02-21T12:38:12;15.30;72.20
51815;DHT22;37874;53.158;6.766;2024-02-21T12:40:40;15.30;72.20
51815;DHT22;37874;53.158;6.766;2024-02-21T12:43:20;15.60;72.40
51815;DHT22;37874;53.158;6.766;2024-02-21T12:45:45;16.40;72.80
51815;DHT22;37874;53.158;6.766;2024-02-21T12:48:11;15.30;72.40
51815;DHT22;37874;53.158;6.766;2024-02-21T12:50:41;15.30;72.30
51815;DHT22;37874;53.158;6.766;2024-02-21T12:53:13;16.10;72.80
51815;DHT22;37874;53.158;6.766;2024-02-21T12:55:41;15.90;72.50
51815;DHT22;37874;53.158;6.766;2024-02-21T12:58:11;15.40;72.10
51815;DHT22;37874;53.158;6.766;2024-02-21T13:00:42;15.40;72.10
51815;DHT22;37874;53.158;6.766;2024-02-21T13:03:11;15.40;72.10
51815;DHT22;37874;53.158;6.766;2024-02-21T13:05:40;15.60;72.20
51815;DHT22;37874;53.158;6.766;2024-02-21T13:08:14;15.70;72.10
51815;DHT22;37874;53.158;6.766;2024-02-21T13:10:40;16.10;72.50
51815;DHT22;37874;53.158;6.766;2024-02-21T13:13:08;15.30;71.90
51815;DHT22;37874;53.158;6.766;2024-02-21T13:15:37;15.60;72.20
51815;DHT22;37874;53.158;6.766;2024-02-21T13:18:09;15.90;72.30
51815;DHT22;37874;53.158;6.766;2024-02-21T13:20:36;15.40;72.00
51815;DHT22;37874;53.158;6.766;2024-02-21T13:23:03;15.70;72.20
51815;DHT22;37874;53.158;6.766;2024-02-21T13:25:36;15.30;72.00
51815;DHT22;37874;53.158;6.766;2024-02-21T13:28:04;15.40;72.10
51815;DHT22;37874;53.158;6.766;2024-02-21T13:30:42;15.40;72.00
51815;DHT22;37874;53.158;6.766;2024-02-21T13:33:07;15.40;71.90
51815;DHT22;37874;53.158;6.766;2024-02-21T13:35:36;15.40;71.80
51815;DHT22;37874;53.158;6.766;2024-02-21T13:38:03;15.60;72.20
51815;DHT22;37874;53.158;6.766;2024-02-21T13:40:28;15.50;72.00
51815;DHT22;37874;53.158;6.766;2024-02-21T13:43:00;16.20;72.40
51815;DHT22;37874;53.158;6.766;2024-02-21T13:45:30;15.50;71.90
51815;DHT22;37874;53.158;6.766;2024-02-21T13:48:05;15.70;71.80
51815;DHT22;37874;53.158;6.766;2024-02-21T13:50:32;15.50;71.80
51815;DHT22;37874;53.158;6.766;2024-02-21T13:52:59;15.60;71.80
51815;DHT22;37874;53.158;6.766;2024-02-21T13:55:27;15.50;71.70
51815;DHT22;37874;53.158;6.766;2024-02-21T13:57:53;15.50;71.60
51815;DHT22;37874;53.158;6.766;2024-02-21T14:00:22;15.80;71.90
51815;DHT22;37874;53.158;6.766;2024-02-21T14:03:02;15.50;71.70
51815;DHT22;37874;53.158;6.766;2024-02-21T14:05:29;15.60;71.70
51815;DHT22;37874;53.158;6.766;2024-02-21T14:07:56;15.70;71.60
51815;DHT22;37874;53.158;6.766;2024-02-21T14:10:38;16.00;72.00
51815;DHT22;37874;53.158;6.766;2024-02-21T14:13:04;15.50;71.50
51815;DHT22;37874;53.158;6.766;2024-02-21T14:15:33;15.50;71.50
51815;DHT22;37874;53.158;6.766;2024-02-21T14:17:59;16.00;71.70
51815;DHT22;37874;53.158;6.766;2024-02-21T14:20:28;15.50;71.50
51815;DHT22;37874;53.158;6.766;2024-02-21T14:22:55;15.50;71.40
51815;DHT22;37874;53.158;6.766;2024-02-21T14:25:22;16.00;71.80
51815;DHT22;37874;53.158;6.766;2024-02-21T14:27:48;16.10;71.90
51815;DHT22;37874;53.158;6.766;2024-02-21T14:30:14;16.00;71.90
51815;DHT22;37874;53.158;6.766;2024-02-21T14:32:43;15.40;71.60
51815;DHT22;37874;53.158;6.766;2024-02-21T14:35:18;16.30;72.10
51815;DHT22;37874;53.158;6.766;2024-02-21T14:37:54;15.50;71.70
51815;DHT22;37874;53.158;6.766;2024-02-21T14:40:33;15.40;72.20
51815;DHT22;37874;53.158;6.766;2024-02-21T14:43:02;15.70;71.80
51815;DHT22;37874;53.158;6.766;2024-02-21T14:45:30;15.40;71.90
51815;DHT22;37874;53.158;6.766;2024-02-21T14:47:59;15.40;71.70
51815;DHT22;37874;53.158;6.766;2024-02-21T14:50:28;15.40;71.80
51815;DHT22;37874;53.158;6.766;2024-02-21T14:52:54;15.60;72.00
51815;DHT22;37874;53.158;6.766;2024-02-21T14:55:20;15.70;72.00
51815;DHT22;37874;53.158;6.766;2024-02-21T14:57:49;15.40;71.90
51815;DHT22;37874;53.158;6.766;2024-02-21T15:00:15;15.60;72.10
51815;DHT22;37874;53.158;6.766;2024-02-21T15:02:42;15.30;72.00
51815;DHT22;37874;53.158;6.766;2024-02-21T15:05:09;15.80;72.20
51815;DHT22;37874;53.158;6.766;2024-02-21T15:07:45;15.30;72.10
51815;DHT22;37874;53.158;6.766;2024-02-21T15:10:13;15.40;72.10
51815;DHT22;37874;53.158;6.766;2024-02-21T15:12:41;15.30;72.10
51815;DHT22;37874;53.158;6.766;2024-02-21T15:15:14;15.30;72.80
51815;DHT22;37874;53.158;6.766;2024-02-21T15:17:54;15.20;72.20
51815;DHT22;37874;53.158;6.766;2024-02-21T15:20:27;15.40;72.40
51815;DHT22;37874;53.158;6.766;2024-02-21T15:22:53;15.30;72.30
51815;DHT22;37874;53.158;6.766;2024-02-21T15:25:19;15.30;72.40
51815;DHT22;37874;53.158;6.766;2024-02-21T15:27:47;15.90;72.80
51815;DHT22;37874;53.158;6.766;2024-02-21T15:30:14;15.20;72.40
51815;DHT22;37874;53.158;6.766;2024-02-21T15:32:42;15.20;72.50
51815;DHT22;37874;53.158;6.766;2024-02-21T15:35:17;15.20;72.40
51815;DHT22;37874;53.158;6.766;2024-02-21T15:37:43;15.20;72.50
51815;DHT22;37874;53.158;6.766;2024-02-21T15:40:10;15.20;72.60
51815;DHT22;37874;53.158;6.766;2024-02-21T15:42:37;15.20;72.40
51815;DHT22;37874;53.158;6.766;2024-02-21T15:45:13;15.20;72.50
51815;DHT22;37874;53.158;6.766;2024-02-21T15:47:39;15.10;72.50
51815;DHT22;37874;53.158;6.766;2024-02-21T15:50:21;15.40;72.70
51815;DHT22;37874;53.158;6.766;2024-02-21T15:52:47;15.30;72.70
51815;DHT22;37874;53.158;6.766;2024-02-21T15:55:14;15.20;72.60